sensor_id;sensor_type;location;lat;lon;timestamp;P1;durP1;ratioP1;P2;durP2;ratioP2
4325;SDS011;58429;49.826;10.880;2023-04-07T00:00:31;16.5;;;13.7;;
4325;SDS011;58429;49.826;10.880;2023-04-07T00:01:31;15.7;;;13;;
4325;SDS011;58429;49.826;10.880;2023-04-07T00:02:31;15.7;;;13;;
4325;SDS011;58429;49.826;10.880;2023-04-07T00:03:32;15.7;;;13;;
4325;SDS011;58429;49.826;10.880;2023-04-07T00:04:31;16.1;;;13.2;;
4325;SDS011;58429;49.826;10.880;2023-04-07T00:05:31;16.1;;;13.2;;
4325;SDS011;58429;49.826;10.880;2023-04-07T00:06:31;16.1;;;13.2;;
4325;SDS011;58429;49.826;10.880;2023-04-07T00:07:31;17.6;;;12.7;;
4325;SDS011;58429;49.826;10.880;2023-04-07T00:08:31;17.6;;;12.7;;
4325;SDS011;58429;49.826;10.880;2023-04-07T00:09:31;17.6;;;12.7;;
4325;SDS011;58429;49.826;10.880;2023-04-07T00:10:31;15.5;;;12.2;;
4325;SDS011;58429;49.826;10.880;2023-04-07T00:11:31;15.5;;;12.2;;
4325;SDS011;58429;49.826;10.880;2023-04-07T00:12:31;15.5;;;12.2;;
4325;SDS011;58429;49.826;10.880;2023-04-07T00:13:31;18.5;;;13.1;;
4325;SDS011;58429;49.826;10.880;2023-04-07T00:14:31;18.5;;;13.1;;
4325;SDS011;58429;49.826;10.880;2023-04-07T00:15:31;18.5;;;13.1;;
4325;SDS011;58429;49.826;10.880;2023-04-07T00:16:31;18.5;;;13.1;;
4325;SDS011;58429;49.826;10.880;2023-04-07T00:17:31;18.5;;;13.1;;
4325;SDS011;58429;49.826;10.880;2023-04-07T00:18:31;18.5;;;13.1;;
4325;SDS011;58429;49.826;10.880;2023-04-07T00:19:31;17.6;;;13.4;;
4325;SDS011;58429;49.826;10.880;2023-04-07T00:20:31;17.6;;;13.4;;
4325;SDS011;58429;49.826;10.880;2023-04-07T00:21:31;17.6;;;13.4;;
4325;SDS011;58429;49.826;10.880;2023-04-07T00:22:31;22;;;14.5;;
4325;SDS011;58429;49.826;10.880;2023-04-07T00:23:31;22;;;14.5;;
4325;SDS011;58429;49.826;10.880;2023-04-07T00:24:31;22;;;14.5;;
4325;SDS011;58429;49.826;10.880;2023-04-07T00:25:31;22.4;;;15.2;;
4325;SDS011;58429;49.826;10.880;2023-04-07T00:26:31;22.4;;;15.2;;
4325;SDS011;58429;49.826;10.880;2023-04-07T00:27:31;22.4;;;15.2;;
4325;SDS011;58429;49.826;10.880;2023-04-07T00:28:31;22;;;15;;
4325;SDS011;58429;49.826;10.880;2023-04-07T00:29:31;22;;;15;;
4325;SDS011;58429;49.826;10.880;2023-04-07T00:30:31;22;;;15;;
4325;SDS011;58429;49.826;10.880;2023-04-07T00:31:31;19.7;;;13.7;;
4325;SDS011;58429;49.826;10.880;2023-04-07T00:32:31;19.7;;;13.7;;
4325;SDS011;58429;49.826;10.880;2023-04-07T00:33:31;19.7;;;13.7;;
4325;SDS011;58429;49.826;10.880;2023-04-07T00:34:31;20;;;13.4;;
4325;SDS011;58429;49.826;10.880;2023-04-07T00:35:31;20;;;13.4;;
4325;SDS011;58429;49.826;10.880;2023-04-07T00:36:31;20;;;13.4;;
4325;SDS011;58429;49.826;10.880;2023-04-07T00:37:31;21.2;;;15;;
4325;SDS011;58429;49.826;10.880;2023-04-07T00:38:31;21.2;;;15;;
4325;SDS011;58429;49.826;10.880;2023-04-07T00:39:31;21.2;;;15;;
4325;SDS011;58429;49.826;10.880;2023-04-07T00:40:31;18.2;;;15.1;;
4325;SDS011;58429;49.826;10.880;2023-04-07T00:41:32;18.2;;;15.1;;
4325;SDS011;58429;49.826;10.880;2023-04-07T00:42:31;18.2;;;15.1;;
4325;SDS011;58429;49.826;10.880;2023-04-07T00:43:31;20.9;;;15;;
4325;SDS011;58429;49.826;10.880;2023-04-07T00:44:31;20.9;;;15;;
4325;SDS011;58429;49.826;10.880;2023-04-07T00:45:31;20.9;;;15;;
4325;SDS011;58429;49.826;10.880;2023-04-07T00:46:31;21.5;;;15;;
4325;SDS011;58429;49.826;10.880;2023-04-07T00:47:31;21.5;;;15;;
4325;SDS011;58429;49.826;10.880;2023-04-07T00:48:31;21.5;;;15;;
4325;SDS011;58429;49.826;10.880;2023-04-07T00:49:31;19.6;;;14;;
4325;SDS011;58429;49.826;10.880;2023-04-07T00:50:31;19.6;;;14;;
4325;SDS011;58429;49.826;10.880;2023-04-07T00:51:31;19.6;;;14;;
4325;SDS011;58429;49.826;10.880;2023-04-07T00:52:31;20.2;;;13.8;;
4325;SDS011;58429;49.826;10.880;2023-04-07T00:53:31;20.2;;;13.8;;
4325;SDS011;58429;49.826;10.880;2023-04-07T00:54:31;20.2;;;13.8;;
4325;SDS011;58429;49.826;10.880;2023-04-07T00:55:31;18.4;;;13.1;;
4325;SDS011;58429;49.826;10.880;2023-04-07T00:56:31;18.4;;;13.1;;
4325;SDS011;58429;49.826;10.880;2023-04-07T00:57:31;18.4;;;13.1;;
4325;SDS011;58429;49.826;10.880;2023-04-07T00:58:31;19.4;;;14.2;;
4325;SDS011;58429;49.826;10.880;2023-04-07T00:59:31;19.4;;;14.2;;
4325;SDS011;58429;49.826;10.880;2023-04-07T01:00:31;19.4;;;14.2;;
4325;SDS011;58429;49.826;10.880;2023-04-07T01:01:32;18.5;;;14.7;;
4325;SDS011;58429;49.826;10.880;2023-04-07T01:02:32;18.5;;;14.7;;
4325;SDS011;58429;49.826;10.880;2023-04-07T01:03:32;18.5;;;14.7;;
4325;SDS011;58429;49.826;10.880;2023-04-07T01:04:32;18.6;;;13.3;;
4325;SDS011;58429;49.826;10.880;2023-04-07T01:05:34;18.6;;;13.3;;
4325;SDS011;58429;49.826;10.880;2023-04-07T01:06:32;18.6;;;13.3;;
4325;SDS011;58429;49.826;10.880;2023-04-07T01:07:31;18.3;;;12.9;;
4325;SDS011;58429;49.826;10.880;2023-04-07T01:08:32;18.3;;;12.9;;
4325;SDS011;58429;49.826;10.880;2023-04-07T01:09:34;18.3;;;12.9;;
4325;SDS011;58429;49.826;10.880;2023-04-07T01:10:32;20;;;13.6;;
4325;SDS011;58429;49.826;10.880;2023-04-07T01:11:31;20;;;13.6;;
4325;SDS011;58429;49.826;10.880;2023-04-07T01:12:33;20;;;13.6;;
4325;SDS011;58429;49.826;10.880;2023-04-07T01:13:33;17.5;;;14.1;;
4325;SDS011;58429;49.826;10.880;2023-04-07T01:14:32;17.5;;;14.1;;
4325;SDS011;58429;49.826;10.880;2023-04-07T01:15:31;17.5;;;14.1;;
4325;SDS011;58429;49.826;10.880;2023-04-07T01:16:35;16.5;;;13.6;;
4325;SDS011;58429;49.826;10.880;2023-04-07T01:17:31;16.5;;;13.6;;
4325;SDS011;58429;49.826;10.880;2023-04-07T01:18:31;16.5;;;13.6;;
4325;SDS011;58429;49.826;10.880;2023-04-07T01:19:32;19.8;;;14.5;;
4325;SDS011;58429;49.826;10.880;2023-04-07T01:20:31;19.8;;;14.5;;
4325;SDS011;58429;49.826;10.880;2023-04-07T01:21:32;19.8;;;14.5;;
4325;SDS011;58429;49.826;10.880;2023-04-07T01:22:31;18.9;;;14.1;;
4325;SDS011;58429;49.826;10.880;2023-04-07T01:23:35;18.9;;;14.1;;
4325;SDS011;58429;49.826;10.880;2023-04-07T01:24:36;18.9;;;14.1;;
4325;SDS011;58429;49.826;10.880;2023-04-07T01:26:06;17;;;13.4;;
4325;SDS011;58429;49.826;10.880;2023-04-07T01:26:31;17;;;13.4;;
4325;SDS011;58429;49.826;10.880;2023-04-07T01:27:35;17;;;13.4;;
4325;SDS011;58429;49.826;10.880;2023-04-07T01:28:43;18.8;;;14.4;;
4325;SDS011;58429;49.826;10.880;2023-04-07T01:29:33;18.8;;;14.4;;
4325;SDS011;58429;49.826;10.880;2023-04-07T01:30:32;18.8;;;14.4;;
4325;SDS011;58429;49.826;10.880;2023-04-07T01:31:31;17.8;;;13.7;;
4325;SDS011;58429;49.826;10.880;2023-04-07T01:32:31;17.8;;;13.7;;
4325;SDS011;58429;49.826;10.880;2023-04-07T01:33:31;17.8;;;13.7;;
4325;SDS011;58429;49.826;10.880;2023-04-07T01:34:31;18.5;;;13.6;;
4325;SDS011;58429;49.826;10.880;2023-04-07T01:35:32;18.5;;;13.6;;
4325;SDS011;58429;49.826;10.880;2023-04-07T01:36:31;18.5;;;13.6;;
4325;SDS011;58429;49.826;10.880;2023-04-07T01:37:31;17.9;;;14;;
4325;SDS011;58429;49.826;10.880;2023-04-07T01:38:31;17.9;;;14;;
4325;SDS011;58429;49.826;10.880;2023-04-07T01:39:31;17.9;;;14;;
4325;SDS011;58429;49.826;10.880;2023-04-07T01:40:31;18.5;;;13.8;;
4325;SDS011;58429;49.826;10.880;2023-04-07T01:41:31;18.5;;;13.8;;
4325;SDS011;58429;49.826;10.880;2023-04-07T01:42:31;18.5;;;13.8;;
4325;SDS011;58429;49.826;10.880;2023-04-07T01:43:31;18.6;;;14;;
4325;SDS011;58429;49.826;10.880;2023-04-07T01:44:31;18.6;;;14;;
4325;SDS011;58429;49.826;10.880;2023-04-07T01:45:31;18.6;;;14;;
4325;SDS011;58429;49.826;10.880;2023-04-07T01:46:31;18.6;;;14;;
4325;SDS011;58429;49.826;10.880;2023-04-07T01:47:31;18.3;;;13.4;;
4325;SDS011;58429;49.826;10.880;2023-04-07T01:48:31;18.3;;;13.4;;
4325;SDS011;58429;49.826;10.880;2023-04-07T01:49:31;18.3;;;13.4;;
4325;SDS011;58429;49.826;10.880;2023-04-07T01:50:31;17.8;;;14.4;;
4325;SDS011;58429;49.826;10.880;2023-04-07T01:51:31;17.8;;;14.4;;
4325;SDS011;58429;49.826;10.880;2023-04-07T01:52:31;17.8;;;14.4;;
4325;SDS011;58429;49.826;10.880;2023-04-07T01:53:31;18.5;;;14.1;;
4325;SDS011;58429;49.826;10.880;2023-04-07T01:54:31;18.5;;;14.1;;
4325;SDS011;58429;49.826;10.880;2023-04-07T01:55:31;18.5;;;14.1;;
4325;SDS011;58429;49.826;10.880;2023-04-07T01:56:31;18.4;;;13.3;;
4325;SDS011;58429;49.826;10.880;2023-04-07T01:57:31;18.4;;;13.3;;
4325;SDS011;58429;49.826;10.880;2023-04-07T01:58:31;18.4;;;13.3;;
4325;SDS011;58429;49.826;10.880;2023-04-07T01:59:31;18.9;;;14.6;;
4325;SDS011;58429;49.826;10.880;2023-04-07T02:00:31;18.9;;;14.6;;
4325;SDS011;58429;49.826;10.880;2023-04-07T02:01:31;18.9;;;14.6;;
4325;SDS011;58429;49.826;10.880;2023-04-07T02:02:32;17.6;;;13.5;;
4325;SDS011;58429;49.826;10.880;2023-04-07T02:03:33;17.6;;;13.5;;
4325;SDS011;58429;49.826;10.880;2023-04-07T02:04:35;17.6;;;13.5;;
4325;SDS011;58429;49.826;10.880;2023-04-07T02:05:31;19.2;;;14.1;;
4325;SDS011;58429;49.826;10.880;2023-04-07T02:06:32;19.2;;;14.1;;
4325;SDS011;58429;49.826;10.880;2023-04-07T02:07:33;19.2;;;14.1;;
4325;SDS011;58429;49.826;10.880;2023-04-07T02:08:31;17.2;;;13.7;;
4325;SDS011;58429;49.826;10.880;2023-04-07T02:09:31;17.2;;;13.7;;
4325;SDS011;58429;49.826;10.880;2023-04-07T02:10:32;17.2;;;13.7;;
4325;SDS011;58429;49.826;10.880;2023-04-07T02:11:31;21.3;;;14.7;;
4325;SDS011;58429;49.826;10.880;2023-04-07T02:12:31;21.3;;;14.7;;
4325;SDS011;58429;49.826;10.880;2023-04-07T02:13:31;21.3;;;14.7;;
4325;SDS011;58429;49.826;10.880;2023-04-07T02:14:31;19.6;;;13.8;;
4325;SDS011;58429;49.826;10.880;2023-04-07T02:15:31;19.6;;;13.8;;
4325;SDS011;58429;49.826;10.880;2023-04-07T02:16:31;19.6;;;13.8;;
4325;SDS011;58429;49.826;10.880;2023-04-07T02:17:31;19;;;13.4;;
4325;SDS011;58429;49.826;10.880;2023-04-07T02:18:31;19;;;13.4;;
4325;SDS011;58429;49.826;10.880;2023-04-07T02:19:31;19;;;13.4;;
4325;SDS011;58429;49.826;10.880;2023-04-07T02:20:31;16;;;13.3;;
4325;SDS011;58429;49.826;10.880;2023-04-07T02:21:32;16;;;13.3;;
4325;SDS011;58429;49.826;10.880;2023-04-07T02:22:32;16;;;13.3;;
4325;SDS011;58429;49.826;10.880;2023-04-07T02:23:33;16.6;;;13.4;;
4325;SDS011;58429;49.826;10.880;2023-04-07T02:24:31;16.6;;;13.4;;
4325;SDS011;58429;49.826;10.880;2023-04-07T02:25:32;16.6;;;13.4;;
4325;SDS011;58429;49.826;10.880;2023-04-07T02:26:32;17.2;;;13.4;;
4325;SDS011;58429;49.826;10.880;2023-04-07T02:27:31;17.2;;;13.4;;
4325;SDS011;58429;49.826;10.880;2023-04-07T02:28:31;17.2;;;13.4;;
4325;SDS011;58429;49.826;10.880;2023-04-07T02:29:31;16.8;;;13.3;;
4325;SDS011;58429;49.826;10.880;2023-04-07T02:30:31;16.8;;;13.3;;
4325;SDS011;58429;49.826;10.880;2023-04-07T02:31:31;16.8;;;13.3;;
4325;SDS011;58429;49.826;10.880;2023-04-07T02:32:31;16.5;;;13.6;;
4325;SDS011;58429;49.826;10.880;2023-04-07T02:33:31;16.5;;;13.6;;
4325;SDS011;58429;49.826;10.880;2023-04-07T02:34:31;16.5;;;13.6;;
4325;SDS011;58429;49.826;10.880;2023-04-07T02:35:31;18.5;;;14.5;;
4325;SDS011;58429;49.826;10.880;2023-04-07T02:36:31;18.5;;;14.5;;
4325;SDS011;58429;49.826;10.880;2023-04-07T02:37:31;18.5;;;14.5;;
4325;SDS011;58429;49.826;10.880;2023-04-07T02:38:31;17.5;;;13.8;;
4325;SDS011;58429;49.826;10.880;2023-04-07T02:39:31;17.5;;;13.8;;
4325;SDS011;58429;49.826;10.880;2023-04-07T02:40:31;17.5;;;13.8;;
4325;SDS011;58429;49.826;10.880;2023-04-07T02:41:31;16.4;;;12.8;;
4325;SDS011;58429;49.826;10.880;2023-04-07T02:42:31;16.4;;;12.8;;
4325;SDS011;58429;49.826;10.880;2023-04-07T02:43:31;16.4;;;12.8;;
4325;SDS011;58429;49.826;10.880;2023-04-07T02:44:31;16.8;;;13.2;;
4325;SDS011;58429;49.826;10.880;2023-04-07T02:45:31;16.8;;;13.2;;
4325;SDS011;58429;49.826;10.880;2023-04-07T02:46:31;16.8;;;13.2;;
4325;SDS011;58429;49.826;10.880;2023-04-07T02:47:31;15.4;;;12.5;;
4325;SDS011;58429;49.826;10.880;2023-04-07T02:48:31;15.4;;;12.5;;
4325;SDS011;58429;49.826;10.880;2023-04-07T02:49:31;15.4;;;12.5;;
4325;SDS011;58429;49.826;10.880;2023-04-07T02:50:31;15.5;;;12.3;;
4325;SDS011;58429;49.826;10.880;2023-04-07T02:51:31;15.5;;;12.3;;
4325;SDS011;58429;49.826;10.880;2023-04-07T02:52:31;15.5;;;12.3;;
4325;SDS011;58429;49.826;10.880;2023-04-07T02:53:31;17.1;;;14.7;;
4325;SDS011;58429;49.826;10.880;2023-04-07T02:54:31;17.1;;;14.7;;
4325;SDS011;58429;49.826;10.880;2023-04-07T02:55:31;17.1;;;14.7;;
4325;SDS011;58429;49.826;10.880;2023-04-07T02:56:31;17.8;;;14.6;;
4325;SDS011;58429;49.826;10.880;2023-04-07T02:57:31;17.8;;;14.6;;
4325;SDS011;58429;49.826;10.880;2023-04-07T02:58:31;17.8;;;14.6;;
4325;SDS011;58429;49.826;10.880;2023-04-07T02:59:31;16.4;;;13.5;;
4325;SDS011;58429;49.826;10.880;2023-04-07T03:00:32;16.4;;;13.5;;
4325;SDS011;58429;49.826;10.880;2023-04-07T03:01:31;16.4;;;13.5;;
4325;SDS011;58429;49.826;10.880;2023-04-07T03:02:31;17.1;;;12.8;;
4325;SDS011;58429;49.826;10.880;2023-04-07T03:03:31;17.1;;;12.8;;
4325;SDS011;58429;49.826;10.880;2023-04-07T03:04:31;17.1;;;12.8;;
4325;SDS011;58429;49.826;10.880;2023-04-07T03:05:31;18.7;;;13;;
4325;SDS011;58429;49.826;10.880;2023-04-07T03:06:31;18.7;;;13;;
4325;SDS011;58429;49.826;10.880;2023-04-07T03:07:31;18.7;;;13;;
4325;SDS011;58429;49.826;10.880;2023-04-07T03:08:31;18.6;;;15.2;;
4325;SDS011;58429;49.826;10.880;2023-04-07T03:09:31;18.6;;;15.2;;
4325;SDS011;58429;49.826;10.880;2023-04-07T03:10:31;18.6;;;15.2;;
4325;SDS011;58429;49.826;10.880;2023-04-07T03:11:31;17.5;;;14.1;;
4325;SDS011;58429;49.826;10.880;2023-04-07T03:12:31;17.5;;;14.1;;
4325;SDS011;58429;49.826;10.880;2023-04-07T03:13:31;17.5;;;14.1;;
4325;SDS011;58429;49.826;10.880;2023-04-07T03:14:31;16.4;;;13.4;;
4325;SDS011;58429;49.826;10.880;2023-04-07T03:15:31;16.4;;;13.4;;
4325;SDS011;58429;49.826;10.880;2023-04-07T03:16:31;16.4;;;13.4;;
4325;SDS011;58429;49.826;10.880;2023-04-07T03:17:31;17.8;;;13.9;;
4325;SDS011;58429;49.826;10.880;2023-04-07T03:18:31;17.8;;;13.9;;
4325;SDS011;58429;49.826;10.880;2023-04-07T03:19:31;17.8;;;13.9;;
4325;SDS011;58429;49.826;10.880;2023-04-07T03:20:31;14.5;;;12.2;;
4325;SDS011;58429;49.826;10.880;2023-04-07T03:21:31;14.5;;;12.2;;
4325;SDS011;58429;49.826;10.880;2023-04-07T03:22:31;14.5;;;12.2;;
4325;SDS011;58429;49.826;10.880;2023-04-07T03:23:31;17.7;;;14.7;;
4325;SDS011;58429;49.826;10.880;2023-04-07T03:24:31;17.7;;;14.7;;
4325;SDS011;58429;49.826;10.880;2023-04-07T03:25:31;17.7;;;14.7;;
4325;SDS011;58429;49.826;10.880;2023-04-07T03:26:31;17;;;14.3;;
4325;SDS011;58429;49.826;10.880;2023-04-07T03:27:31;17;;;14.3;;
4325;SDS011;58429;49.826;10.880;2023-04-07T03:28:31;17;;;14.3;;
4325;SDS011;58429;49.826;10.880;2023-04-07T03:29:31;17.3;;;13.7;;
4325;SDS011;58429;49.826;10.880;2023-04-07T03:30:31;17.3;;;13.7;;
4325;SDS011;58429;49.826;10.880;2023-04-07T03:31:31;17.3;;;13.7;;
4325;SDS011;58429;49.826;10.880;2023-04-07T03:32:31;16.3;;;12.9;;
4325;SDS011;58429;49.826;10.880;2023-04-07T03:33:31;16.3;;;12.9;;
4325;SDS011;58429;49.826;10.880;2023-04-07T03:34:31;16.3;;;12.9;;
4325;SDS011;58429;49.826;10.880;2023-04-07T03:35:31;16.3;;;12.9;;
4325;SDS011;58429;49.826;10.880;2023-04-07T03:36:31;17.3;;;13.2;;
4325;SDS011;58429;49.826;10.880;2023-04-07T03:37:31;17.3;;;13.2;;
4325;SDS011;58429;49.826;10.880;2023-04-07T03:38:31;17.3;;;13.2;;
4325;SDS011;58429;49.826;10.880;2023-04-07T03:39:31;17.9;;;13.4;;
4325;SDS011;58429;49.826;10.880;2023-04-07T03:40:31;17.9;;;13.4;;
4325;SDS011;58429;49.826;10.880;2023-04-07T03:41:31;17.9;;;13.4;;
4325;SDS011;58429;49.826;10.880;2023-04-07T03:42:31;18;;;14.3;;
4325;SDS011;58429;49.826;10.880;2023-04-07T03:43:31;18;;;14.3;;
4325;SDS011;58429;49.826;10.880;2023-04-07T03:44:31;18;;;14.3;;
4325;SDS011;58429;49.826;10.880;2023-04-07T03:45:32;18.2;;;13.5;;
4325;SDS011;58429;49.826;10.880;2023-04-07T03:46:31;18.2;;;13.5;;
4325;SDS011;58429;49.826;10.880;2023-04-07T03:47:31;18.2;;;13.5;;
4325;SDS011;58429;49.826;10.880;2023-04-07T03:48:31;19;;;13.9;;
4325;SDS011;58429;49.826;10.880;2023-04-07T03:49:31;19;;;13.9;;
4325;SDS011;58429;49.826;10.880;2023-04-07T03:50:31;19;;;13.9;;
4325;SDS011;58429;49.826;10.880;2023-04-07T03:51:31;17.9;;;15.6;;
4325;SDS011;58429;49.826;10.880;2023-04-07T03:52:31;17.9;;;15.6;;
4325;SDS011;58429;49.826;10.880;2023-04-07T03:53:31;17.9;;;15.6;;
4325;SDS011;58429;49.826;10.880;2023-04-07T03:54:31;18.2;;;13.8;;
4325;SDS011;58429;49.826;10.880;2023-04-07T03:55:33;18.2;;;13.8;;
4325;SDS011;58429;49.826;10.880;2023-04-07T03:56:31;18.2;;;13.8;;
4325;SDS011;58429;49.826;10.880;2023-04-07T03:57:31;17.4;;;14.5;;
4325;SDS011;58429;49.826;10.880;2023-04-07T03:58:31;17.4;;;14.5;;
4325;SDS011;58429;49.826;10.880;2023-04-07T03:59:31;17.4;;;14.5;;
4325;SDS011;58429;49.826;10.880;2023-04-07T04:00:31;17.9;;;14.5;;
4325;SDS011;58429;49.826;10.880;2023-04-07T04:01:31;17.9;;;14.5;;
4325;SDS011;58429;49.826;10.880;2023-04-07T04:02:31;17.9;;;14.5;;
4325;SDS011;58429;49.826;10.880;2023-04-07T04:03:31;17.1;;;13.9;;
4325;SDS011;58429;49.826;10.880;2023-04-07T04:04:31;17.1;;;13.9;;
4325;SDS011;58429;49.826;10.880;2023-04-07T04:05:31;17.1;;;13.9;;
4325;SDS011;58429;49.826;10.880;2023-04-07T04:06:31;16.4;;;13.2;;
4325;SDS011;58429;49.826;10.880;2023-04-07T04:07:31;16.4;;;13.2;;
4325;SDS011;58429;49.826;10.880;2023-04-07T04:08:31;16.4;;;13.2;;
4325;SDS011;58429;49.826;10.880;2023-04-07T04:09:31;16.8;;;12.7;;
4325;SDS011;58429;49.826;10.880;2023-04-07T04:10:31;16.8;;;12.7;;
4325;SDS011;58429;49.826;10.880;2023-04-07T04:11:31;16.8;;;12.7;;
4325;SDS011;58429;49.826;10.880;2023-04-07T04:12:31;17.1;;;13.1;;
4325;SDS011;58429;49.826;10.880;2023-04-07T04:13:31;17.1;;;13.1;;
4325;SDS011;58429;49.826;10.880;2023-04-07T04:14:31;17.1;;;13.1;;
4325;SDS011;58429;49.826;10.880;2023-04-07T04:15:31;17.4;;;13.6;;
4325;SDS011;58429;49.826;10.880;2023-04-07T04:16:31;17.4;;;13.6;;
4325;SDS011;58429;49.826;10.880;2023-04-07T04:17:31;17.4;;;13.6;;
4325;SDS011;58429;49.826;10.880;2023-04-07T04:18:31;17.5;;;14.5;;
4325;SDS011;58429;49.826;10.880;2023-04-07T04:19:31;17.5;;;14.5;;
4325;SDS011;58429;49.826;10.880;2023-04-07T04:20:31;17.5;;;14.5;;
4325;SDS011;58429;49.826;10.880;2023-04-07T04:21:31;18.7;;;15.1;;
4325;SDS011;58429;49.826;10.880;2023-04-07T04:22:31;18.7;;;15.1;;
4325;SDS011;58429;49.826;10.880;2023-04-07T04:23:31;18.7;;;15.1;;
4325;SDS011;58429;49.826;10.880;2023-04-07T04:24:31;18.1;;;14.5;;
4325;SDS011;58429;49.826;10.880;2023-04-07T04:25:31;18.1;;;14.5;;
4325;SDS011;58429;49.826;10.880;2023-04-07T04:26:31;18.1;;;14.5;;
4325;SDS011;58429;49.826;10.880;2023-04-07T04:27:31;19;;;13.5;;
4325;SDS011;58429;49.826;10.880;2023-04-07T04:28:31;19;;;13.5;;
4325;SDS011;58429;49.826;10.880;2023-04-07T04:29:31;19;;;13.5;;
4325;SDS011;58429;49.826;10.880;2023-04-07T04:30:31;17.3;;;14;;
4325;SDS011;58429;49.826;10.880;2023-04-07T04:31:31;17.3;;;14;;
4325;SDS011;58429;49.826;10.880;2023-04-07T04:32:31;17.3;;;14;;
4325;SDS011;58429;49.826;10.880;2023-04-07T04:33:31;16.9;;;14;;
4325;SDS011;58429;49.826;10.880;2023-04-07T04:34:31;16.9;;;14;;
4325;SDS011;58429;49.826;10.880;2023-04-07T04:35:31;16.9;;;14;;
4325;SDS011;58429;49.826;10.880;2023-04-07T04:36:31;16.6;;;13;;
4325;SDS011;58429;49.826;10.880;2023-04-07T04:37:31;16.6;;;13;;
4325;SDS011;58429;49.826;10.880;2023-04-07T04:38:31;16.6;;;13;;
4325;SDS011;58429;49.826;10.880;2023-04-07T04:39:31;17.7;;;13.7;;
4325;SDS011;58429;49.826;10.880;2023-04-07T04:40:31;17.7;;;13.7;;
4325;SDS011;58429;49.826;10.880;2023-04-07T04:41:32;17.7;;;13.7;;
4325;SDS011;58429;49.826;10.880;2023-04-07T04:42:31;18.4;;;13.9;;
4325;SDS011;58429;49.826;10.880;2023-04-07T04:43:31;18.4;;;13.9;;
4325;SDS011;58429;49.826;10.880;2023-04-07T04:44:31;18.4;;;13.9;;
4325;SDS011;58429;49.826;10.880;2023-04-07T04:45:31;18.9;;;13.9;;
4325;SDS011;58429;49.826;10.880;2023-04-07T04:46:31;18.9;;;13.9;;
4325;SDS011;58429;49.826;10.880;2023-04-07T04:47:31;18.9;;;13.9;;
4325;SDS011;58429;49.826;10.880;2023-04-07T04:48:31;18.4;;;14;;
4325;SDS011;58429;49.826;10.880;2023-04-07T04:49:31;18.4;;;14;;
4325;SDS011;58429;49.826;10.880;2023-04-07T04:50:31;18.4;;;14;;
4325;SDS011;58429;49.826;10.880;2023-04-07T04:51:31;16.7;;;14.1;;
4325;SDS011;58429;49.826;10.880;2023-04-07T04:52:31;16.7;;;14.1;;
4325;SDS011;58429;49.826;10.880;2023-04-07T04:53:31;16.7;;;14.1;;
4325;SDS011;58429;49.826;10.880;2023-04-07T04:54:31;18;;;14;;
4325;SDS011;58429;49.826;10.880;2023-04-07T04:55:31;18;;;14;;
4325;SDS011;58429;49.826;10.880;2023-04-07T04:56:31;18;;;14;;
4325;SDS011;58429;49.826;10.880;2023-04-07T04:57:31;24.6;;;17.5;;
4325;SDS011;58429;49.826;10.880;2023-04-07T04:58:31;24.6;;;17.5;;
4325;SDS011;58429;49.826;10.880;2023-04-07T04:59:32;24.6;;;17.5;;
4325;SDS011;58429;49.826;10.880;2023-04-07T05:00:31;21.1;;;16.6;;
4325;SDS011;58429;49.826;10.880;2023-04-07T05:01:31;21.1;;;16.6;;
4325;SDS011;58429;49.826;10.880;2023-04-07T05:02:31;21.1;;;16.6;;
4325;SDS011;58429;49.826;10.880;2023-04-07T05:03:31;18.9;;;14.9;;
4325;SDS011;58429;49.826;10.880;2023-04-07T05:04:31;18.9;;;14.9;;
4325;SDS011;58429;49.826;10.880;2023-04-07T05:05:31;18.9;;;14.9;;
4325;SDS011;58429;49.826;10.880;2023-04-07T05:06:31;17.8;;;14.6;;
4325;SDS011;58429;49.826;10.880;2023-04-07T05:07:31;17.8;;;14.6;;
4325;SDS011;58429;49.826;10.880;2023-04-07T05:08:31;17.8;;;14.6;;
4325;SDS011;58429;49.826;10.880;2023-04-07T05:09:31;20.1;;;15.3;;
4325;SDS011;58429;49.826;10.880;2023-04-07T05:10:31;20.1;;;15.3;;
4325;SDS011;58429;49.826;10.880;2023-04-07T05:11:32;20.1;;;15.3;;
4325;SDS011;58429;49.826;10.880;2023-04-07T05:12:31;20.1;;;15.7;;
4325;SDS011;58429;49.826;10.880;2023-04-07T05:13:32;20.1;;;15.7;;
4325;SDS011;58429;49.826;10.880;2023-04-07T05:14:31;20.1;;;15.7;;
4325;SDS011;58429;49.826;10.880;2023-04-07T05:15:31;19.5;;;15.1;;
4325;SDS011;58429;49.826;10.880;2023-04-07T05:16:31;19.5;;;15.1;;
4325;SDS011;58429;49.826;10.880;2023-04-07T05:17:31;19.5;;;15.1;;
4325;SDS011;58429;49.826;10.880;2023-04-07T05:18:31;18.3;;;14.8;;
4325;SDS011;58429;49.826;10.880;2023-04-07T05:19:32;18.3;;;14.8;;
4325;SDS011;58429;49.826;10.880;2023-04-07T05:20:31;18.3;;;14.8;;
4325;SDS011;58429;49.826;10.880;2023-04-07T05:21:31;20.1;;;15.4;;
4325;SDS011;58429;49.826;10.880;2023-04-07T05:22:31;20.1;;;15.4;;
4325;SDS011;58429;49.826;10.880;2023-04-07T05:23:31;20.1;;;15.4;;
4325;SDS011;58429;49.826;10.880;2023-04-07T05:24:31;20.1;;;15.4;;
4325;SDS011;58429;49.826;10.880;2023-04-07T05:25:31;18.2;;;14.8;;
4325;SDS011;58429;49.826;10.880;2023-04-07T05:26:31;18.2;;;14.8;;
4325;SDS011;58429;49.826;10.880;2023-04-07T05:27:31;18.2;;;14.8;;
4325;SDS011;58429;49.826;10.880;2023-04-07T05:28:31;19.7;;;15.5;;
4325;SDS011;58429;49.826;10.880;2023-04-07T05:29:32;19.7;;;15.5;;
4325;SDS011;58429;49.826;10.880;2023-04-07T05:30:31;19.7;;;15.5;;
4325;SDS011;58429;49.826;10.880;2023-04-07T05:31:32;18.5;;;14.6;;
4325;SDS011;58429;49.826;10.880;2023-04-07T05:32:31;18.5;;;14.6;;
4325;SDS011;58429;49.826;10.880;2023-04-07T05:33:31;18.5;;;14.6;;
4325;SDS011;58429;49.826;10.880;2023-04-07T05:34:31;18.9;;;14.8;;
4325;SDS011;58429;49.826;10.880;2023-04-07T05:35:31;18.9;;;14.8;;
4325;SDS011;58429;49.826;10.880;2023-04-07T05:36:32;18.9;;;14.8;;
4325;SDS011;58429;49.826;10.880;2023-04-07T05:37:31;18.4;;;13.8;;
4325;SDS011;58429;49.826;10.880;2023-04-07T05:38:31;18.4;;;13.8;;
4325;SDS011;58429;49.826;10.880;2023-04-07T05:39:31;18.4;;;13.8;;
4325;SDS011;58429;49.826;10.880;2023-04-07T05:40:31;21.2;;;15.6;;
4325;SDS011;58429;49.826;10.880;2023-04-07T05:41:31;21.2;;;15.6;;
4325;SDS011;58429;49.826;10.880;2023-04-07T05:42:31;21.2;;;15.6;;
4325;SDS011;58429;49.826;10.880;2023-04-07T05:43:32;21.1;;;14.9;;
4325;SDS011;58429;49.826;10.880;2023-04-07T05:44:32;21.1;;;14.9;;
4325;SDS011;58429;49.826;10.880;2023-04-07T05:45:32;21.1;;;14.9;;
4325;SDS011;58429;49.826;10.880;2023-04-07T05:46:31;21.2;;;15.6;;
4325;SDS011;58429;49.826;10.880;2023-04-07T05:47:31;21.2;;;15.6;;
4325;SDS011;58429;49.826;10.880;2023-04-07T05:48:31;21.2;;;15.6;;
4325;SDS011;58429;49.826;10.880;2023-04-07T05:49:31;20.1;;;15.4;;
4325;SDS011;58429;49.826;10.880;2023-04-07T05:50:31;20.1;;;15.4;;
4325;SDS011;58429;49.826;10.880;2023-04-07T05:51:32;20.1;;;15.4;;
4325;SDS011;58429;49.826;10.880;2023-04-07T05:52:31;20.4;;;16.1;;
4325;SDS011;58429;49.826;10.880;2023-04-07T05:53:32;20.4;;;16.1;;
4325;SDS011;58429;49.826;10.880;2023-04-07T05:54:31;20.4;;;16.1;;
4325;SDS011;58429;49.826;10.880;2023-04-07T05:55:32;18.6;;;15.9;;
4325;SDS011;58429;49.826;10.880;2023-04-07T05:56:32;18.6;;;15.9;;
4325;SDS011;58429;49.826;10.880;2023-04-07T05:57:31;18.6;;;15.9;;
4325;SDS011;58429;49.826;10.880;2023-04-07T05:58:31;20.2;;;15.9;;
4325;SDS011;58429;49.826;10.880;2023-04-07T05:59:32;20.2;;;15.9;;
4325;SDS011;58429;49.826;10.880;2023-04-07T06:00:31;20.2;;;15.9;;
4325;SDS011;58429;49.826;10.880;2023-04-07T06:01:32;20.5;;;15.8;;
4325;SDS011;58429;49.826;10.880;2023-04-07T06:02:31;20.5;;;15.8;;
4325;SDS011;58429;49.826;10.880;2023-04-07T06:03:31;20.5;;;15.8;;